sensor_id;sensor_type;location;lat;lon;timestamp;temperature;humidity
28247;DHT22;66191;53.178;22.058;2023-06-14T00:01:47;15.80;98.30
28247;DHT22;66191;53.178;22.058;2023-06-14T00:04:18;15.70;99.20
28247;DHT22;66191;53.178;22.058;2023-06-14T00:06:49;15.70;99.30
28247;DHT22;66191;53.178;22.058;2023-06-14T00:09:21;15.70;98.50
28247;DHT22;66191;53.178;22.058;2023-06-14T00:11:54;15.60;98.60
28247;DHT22;66191;53.178;22.058;2023-06-14T00:14:26;15.60;98.70
28247;DHT22;66191;53.178;22.058;2023-06-14T00:16:56;15.60;98.80
28247;DHT22;66191;53.178;22.058;2023-06-14T00:19:29;15.60;99.40
28247;DHT22;66191;53.178;22.058;2023-06-14T00:22:00;15.60;98.80
28247;DHT22;66191;53.178;22.058;2023-06-14T00:24:32;15.60;98.90
28247;DHT22;66191;53.178;22.058;2023-06-14T00:27:10;15.60;98.70
28247;DHT22;66191;53.178;22.058;2023-06-14T00:29:42;15.50;98.60
28247;DHT22;66191;53.178;22.058;2023-06-14T00:32:13;15.40;98.50
28247;DHT22;66191;53.178;22.058;2023-06-14T00:34:45;15.30;98.80
28247;DHT22;66191;53.178;22.058;2023-06-14T00:37:15;15.20;98.80
28247;DHT22;66191;53.178;22.058;2023-06-14T00:39:47;15.20;99.50
28247;DHT22;66191;53.178;22.058;2023-06-14T00:42:28;15.10;98.90
28247;DHT22;66191;53.178;22.058;2023-06-14T00:45:00;15.00;99.20
28247;DHT22;66191;53.178;22.058;2023-06-14T00:47:31;15.00;99.20
28247;DHT22;66191;53.178;22.058;2023-06-14T00:50:06;15.00;99.20
28247;DHT22;66191;53.178;22.058;2023-06-14T00:52:38;15.00;99.30
28247;DHT22;66191;53.178;22.058;2023-06-14T00:55:10;15.00;99.50
28247;DHT22;66191;53.178;22.058;2023-06-14T00:57:44;14.90;99.50
28247;DHT22;66191;53.178;22.058;2023-06-14T01:00:16;15.00;99.60
28247;DHT22;66191;53.178;22.058;2023-06-14T01:02:48;15.00;99.60
28247;DHT22;66191;53.178;22.058;2023-06-14T01:05:21;15.10;99.50
28247;DHT22;66191;53.178;22.058;2023-06-14T01:08:03;15.10;99.60
28247;DHT22;66191;53.178;22.058;2023-06-14T01:10:44;15.10;99.70
28247;DHT22;66191;53.178;22.058;2023-06-14T01:13:28;15.10;99.70
28247;DHT22;66191;53.178;22.058;2023-06-14T01:16:00;15.10;99.90
28247;DHT22;66191;53.178;22.058;2023-06-14T01:18:32;15.00;99.90
28247;DHT22;66191;53.178;22.058;2023-06-14T01:21:04;15.00;99.90
28247;DHT22;66191;53.178;22.058;2023-06-14T01:23:39;15.10;99.90
28247;DHT22;66191;53.178;22.058;2023-06-14T01:26:10;15.10;99.90
28247;DHT22;66191;53.178;22.058;2023-06-14T01:28:43;15.00;99.90
28247;DHT22;66191;53.178;22.058;2023-06-14T01:31:18;15.00;99.90
28247;DHT22;66191;53.178;22.058;2023-06-14T01:33:50;15.00;99.90
28247;DHT22;66191;53.178;22.058;2023-06-14T01:36:29;15.00;99.90
28247;DHT22;66191;53.178;22.058;2023-06-14T01:39:04;14.90;99.90
28247;DHT22;66191;53.178;22.058;2023-06-14T01:41:36;14.80;99.90
28247;DHT22;66191;53.178;22.058;2023-06-14T01:44:08;14.80;99.90
28247;DHT22;66191;53.178;22.058;2023-06-14T01:46:40;14.80;99.90
28247;DHT22;66191;53.178;22.058;2023-06-14T01:49:12;14.80;99.90
28247;DHT22;66191;53.178;22.058;2023-06-14T01:51:43;14.70;99.90
28247;DHT22;66191;53.178;22.058;2023-06-14T01:54:18;14.70;99.90
28247;DHT22;66191;53.178;22.058;2023-06-14T01:56:53;14.70;99.90
28247;DHT22;66191;53.178;22.058;2023-06-14T01:59:24;14.70;99.90
28247;DHT22;66191;53.178;22.058;2023-06-14T02:01:55;14.70;99.90
28247;DHT22;66191;53.178;22.058;2023-06-14T02:04:26;14.70;99.90
28247;DHT22;66191;53.178;22.058;2023-06-14T02:06:57;14.70;99.90
28247;DHT22;66191;53.178;22.058;2023-06-14T02:09:31;14.60;99.90
28247;DHT22;66191;53.178;22.058;2023-06-14T02:12:03;14.70;99.90
28247;DHT22;66191;53.178;22.058;2023-06-14T02:14:34;14.60;99.90
28247;DHT22;66191;53.178;22.058;2023-06-14T02:17:06;14.60;99.90
28247;DHT22;66191;53.178;22.058;2023-06-14T02:19:37;14.70;99.90
28247;DHT22;66191;53.178;22.058;2023-06-14T02:22:09;14.60;99.90
28247;DHT22;66191;53.178;22.058;2023-06-14T02:24:42;14.60;99.90
28247;DHT22;66191;53.178;22.058;2023-06-14T02:27:13;14.60;99.90
28247;DHT22;66191;53.178;22.058;2023-06-14T02:29:45;14.60;99.90
28247;DHT22;66191;53.178;22.058;2023-06-14T02:32:16;14.60;99.90
28247;DHT22;66191;53.178;22.058;2023-06-14T02:34:47;14.60;99.90
28247;DHT22;66191;53.178;22.058;2023-06-14T02:37:19;14.60;99.90
28247;DHT22;66191;53.178;22.058;2023-06-14T02:39:52;14.60;99.90
28247;DHT22;66191;53.178;22.058;2023-06-14T02:42:24;14.60;99.90
28247;DHT22;66191;53.178;22.058;2023-06-14T02:44:54;14.60;99.90
28247;DHT22;66191;53.178;22.058;2023-06-14T02:47:29;14.60;99.90
28247;DHT22;66191;53.178;22.058;2023-06-14T02:50:00;14.60;99.90
28247;DHT22;66191;53.178;22.058;2023-06-14T02:52:32;14.60;99.90
28247;DHT22;66191;53.178;22.058;2023-06-14T02:55:07;14.70;99.90
28247;DHT22;66191;53.178;22.058;2023-06-14T02:57:39;14.70;99.90
28247;DHT22;66191;53.178;22.058;2023-06-14T03:00:12;14.70;99.90
28247;DHT22;66191;53.178;22.058;2023-06-14T03:02:46;14.80;99.90
28247;DHT22;66191;53.178;22.058;2023-06-14T03:05:19;14.80;99.90
28247;DHT22;66191;53.178;22.058;2023-06-14T03:07:52;14.80;99.90
28247;DHT22;66191;53.178;22.058;2023-06-14T03:10:26;14.90;99.90
28247;DHT22;66191;53.178;22.058;2023-06-14T03:12:59;14.90;99.90
28247;DHT22;66191;53.178;22.058;2023-06-14T03:15:30;14.90;99.90
28247;DHT22;66191;53.178;22.058;2023-06-14T03:18:03;14.90;99.90
28247;DHT22;66191;53.178;22.058;2023-06-14T03:20:36;15.00;99.90
28247;DHT22;66191;53.178;22.058;2023-06-14T03:23:09;15.00;99.90
28247;DHT22;66191;53.178;22.058;2023-06-14T03:25:43;15.00;99.90
28247;DHT22;66191;53.178;22.058;2023-06-14T03:28:14;15.00;99.90
28247;DHT22;66191;53.178;22.058;2023-06-14T03:30:46;15.10;99.90
28247;DHT22;66191;53.178;22.058;2023-06-14T03:33:18;15.10;99.90
28247;DHT22;66191;53.178;22.058;2023-06-14T03:35:49;15.10;99.90
28247;DHT22;66191;53.178;22.058;2023-06-14T03:38:21;15.10;99.90
28247;DHT22;66191;53.178;22.058;2023-06-14T03:40:55;15.10;99.90
28247;DHT22;66191;53.178;22.058;2023-06-14T03:43:27;15.10;99.90
28247;DHT22;66191;53.178;22.058;2023-06-14T03:45:58;15.20;99.90
28247;DHT22;66191;53.178;22.058;2023-06-14T03:48:34;15.20;99.90
28247;DHT22;66191;53.178;22.058;2023-06-14T03:51:07;15.20;99.90
28247;DHT22;66191;53.178;22.058;2023-06-14T03:53:39;15.20;99.90
28247;DHT22;66191;53.178;22.058;2023-06-14T03:56:32;15.30;99.90
28247;DHT22;66191;53.178;22.058;2023-06-14T03:59:07;15.30;99.90
28247;DHT22;66191;53.178;22.058;2023-06-14T04:01:38;15.30;99.90
28247;DHT22;66191;53.178;22.058;2023-06-14T04:04:16;15.30;99.90
28247;DHT22;66191;53.178;22.058;2023-06-14T04:06:49;15.30;99.90
28247;DHT22;66191;53.178;22.058;2023-06-14T04:09:21;15.30;99.90
28247;DHT22;66191;53.178;22.058;2023-06-14T04:11:55;15.30;99.90
28247;DHT22;66191;53.178;22.058;2023-06-14T04:14:27;15.40;99.90
28247;DHT22;66191;53.178;22.058;2023-06-14T04:16:58;15.40;99.90
28247;DHT22;66191;53.178;22.058;2023-06-14T04:19:30;15.50;99.90
28247;DHT22;66191;53.178;22.058;2023-06-14T04:22:01;15.50;99.90
28247;DHT22;66191;53.178;22.058;2023-06-14T04:24:35;15.50;99.90
28247;DHT22;66191;53.178;22.058;2023-06-14T04:27:09;15.50;99.90
28247;DHT22;66191;53.178;22.058;2023-06-14T04:29:41;15.50;99.90
28247;DHT22;66191;53.178;22.058;2023-06-14T04:32:17;15.60;99.90
28247;DHT22;66191;53.178;22.058;2023-06-14T04:34:50;15.70;99.90
28247;DHT22;66191;53.178;22.058;2023-06-14T04:37:22;15.60;99.90
28247;DHT22;66191;53.178;22.058;2023-06-14T04:39:56;15.60;99.90
28247;DHT22;66191;53.178;22.058;2023-06-14T04:42:32;15.60;99.90
28247;DHT22;66191;53.178;22.058;2023-06-14T04:45:08;15.60;99.90
28247;DHT22;66191;53.178;22.058;2023-06-14T04:47:41;15.60;99.90
28247;DHT22;66191;53.178;22.058;2023-06-14T04:50:12;15.60;99.90
28247;DHT22;66191;53.178;22.058;2023-06-14T04:52:44;15.60;99.90
28247;DHT22;66191;53.178;22.058;2023-06-14T04:55:19;15.60;99.90
28247;DHT22;66191;53.178;22.058;2023-06-14T04:57:54;15.60;99.70
28247;DHT22;66191;53.178;22.058;2023-06-14T05:00:27;15.70;99.90
28247;DHT22;66191;53.178;22.058;2023-06-14T05:02:58;15.70;99.70
28247;DHT22;66191;53.178;22.058;2023-06-14T05:05:31;15.60;99.70
28247;DHT22;66191;53.178;22.058;2023-06-14T05:08:03;15.70;99.70
28247;DHT22;66191;53.178;22.058;2023-06-14T05:10:34;15.70;99.70
28247;DHT22;66191;53.178;22.058;2023-06-14T05:13:10;15.70;99.60
28247;DHT22;66191;53.178;22.058;2023-06-14T05:15:42;15.70;99.40
28247;DHT22;66191;53.178;22.058;2023-06-14T05:18:13;15.80;99.50
28247;DHT22;66191;53.178;22.058;2023-06-14T05:20:45;15.90;99.40
28247;DHT22;66191;53.178;22.058;2023-06-14T05:23:16;16.00;99.50
28247;DHT22;66191;53.178;22.058;2023-06-14T05:25:48;16.10;99.50
28247;DHT22;66191;53.178;22.058;2023-06-14T05:28:21;16.20;99.40
28247;DHT22;66191;53.178;22.058;2023-06-14T05:30:52;16.20;98.80
28247;DHT22;66191;53.178;22.058;2023-06-14T05:33:24;16.30;99.20
28247;DHT22;66191;53.178;22.058;2023-06-14T05:35:55;16.40;99.00
28247;DHT22;66191;53.178;22.058;2023-06-14T05:38:27;16.40;98.80
28247;DHT22;66191;53.178;22.058;2023-06-14T05:40:59;16.50;98.60
28247;DHT22;66191;53.178;22.058;2023-06-14T05:43:32;16.50;98.30
28247;DHT22;66191;53.178;22.058;2023-06-14T05:46:04;16.60;98.30
28247;DHT22;66191;53.178;22.058;2023-06-14T05:48:35;16.60;98.30
28247;DHT22;66191;53.178;22.058;2023-06-14T05:51:07;16.60;98.20
28247;DHT22;66191;53.178;22.058;2023-06-14T05:53:39;16.60;98.40
28247;DHT22;66191;53.178;22.058;2023-06-14T05:56:11;16.60;98.40
28247;DHT22;66191;53.178;22.058;2023-06-14T05:58:44;16.70;98.40
28247;DHT22;66191;53.178;22.058;2023-06-14T06:01:16;16.80;98.40
28247;DHT22;66191;53.178;22.058;2023-06-14T06:03:47;16.90;98.10
28247;DHT22;66191;53.178;22.058;2023-06-14T06:06:19;17.00;98.10
28247;DHT22;66191;53.178;22.058;2023-06-14T06:08:50;17.10;98.00
28247;DHT22;66191;53.178;22.058;2023-06-14T06:11:21;17.20;97.70
28247;DHT22;66191;53.178;22.058;2023-06-14T06:13:54;17.40;97.70
28247;DHT22;66191;53.178;22.058;2023-06-14T06:16:25;17.50;97.90
28247;DHT22;66191;53.178;22.058;2023-06-14T06:18:56;17.50;97.20
28247;DHT22;66191;53.178;22.058;2023-06-14T06:21:28;17.60;97.20
28247;DHT22;66191;53.178;22.058;2023-06-14T06:23:59;17.70;97.10
28247;DHT22;66191;53.178;22.058;2023-06-14T06:26:32;17.70;96.80
28247;DHT22;66191;53.178;22.058;2023-06-14T06:29:05;17.70;96.80
28247;DHT22;66191;53.178;22.058;2023-06-14T06:31:37;17.70;96.60
28247;DHT22;66191;53.178;22.058;2023-06-14T06:34:08;17.70;96.60
28247;DHT22;66191;53.178;22.058;2023-06-14T06:36:39;17.60;96.50
28247;DHT22;66191;53.178;22.058;2023-06-14T06:39:10;17.70;96.50
28247;DHT22;66191;53.178;22.058;2023-06-14T06:41:43;17.70;96.40
28247;DHT22;66191;53.178;22.058;2023-06-14T06:44:29;17.70;96.50
28247;DHT22;66191;53.178;22.058;2023-06-14T06:47:01;17.80;96.30
28247;DHT22;66191;53.178;22.058;2023-06-14T06:49:33;17.90;96.00
28247;DHT22;66191;53.178;22.058;2023-06-14T06:52:06;18.00;96.00
28247;DHT22;66191;53.178;22.058;2023-06-14T06:54:37;18.10;95.90
28247;DHT22;66191;53.178;22.058;2023-06-14T06:57:08;18.20;95.80
28247;DHT22;66191;53.178;22.058;2023-06-14T06:59:42;18.30;95.70
28247;DHT22;66191;53.178;22.058;2023-06-14T07:02:13;18.30;95.60
28247;DHT22;66191;53.178;22.058;2023-06-14T07:04:45;18.30;95.40
28247;DHT22;66191;53.178;22.058;2023-06-14T07:07:17;18.50;95.50
28247;DHT22;66191;53.178;22.058;2023-06-14T07:09:49;18.50;95.50
28247;DHT22;66191;53.178;22.058;2023-06-14T07:12:21;18.60;95.00
28247;DHT22;66191;53.178;22.058;2023-06-14T07:14:55;18.70;94.70
28247;DHT22;66191;53.178;22.058;2023-06-14T07:17:30;18.80;93.60
28247;DHT22;66191;53.178;22.058;2023-06-14T07:20:02;18.90;94.30
28247;DHT22;66191;53.178;22.058;2023-06-14T07:22:41;19.00;94.20
28247;DHT22;66191;53.178;22.058;2023-06-14T07:25:14;19.20;94.00
28247;DHT22;66191;53.178;22.058;2023-06-14T07:27:48;19.20;93.20
28247;DHT22;66191;53.178;22.058;2023-06-14T07:30:22;19.30;92.20
28247;DHT22;66191;53.178;22.058;2023-06-14T07:32:55;19.30;91.90
28247;DHT22;66191;53.178;22.058;2023-06-14T07:35:26;19.40;92.30
28247;DHT22;66191;53.178;22.058;2023-06-14T07:37:58;19.40;92.00
28247;DHT22;66191;53.178;22.058;2023-06-14T07:40:29;19.60;92.30
28247;DHT22;66191;53.178;22.058;2023-06-14T07:43:01;19.60;92.10
28247;DHT22;66191;53.178;22.058;2023-06-14T07:45:35;19.70;91.10
28247;DHT22;66191;53.178;22.058;2023-06-14T07:48:18;19.50;89.80
28247;DHT22;66191;53.178;22.058;2023-06-14T07:50:49;19.50;90.40
28247;DHT22;66191;53.178;22.058;2023-06-14T07:53:20;19.40;90.50
28247;DHT22;66191;53.178;22.058;2023-06-14T07:55:51;19.30;90.10
28247;DHT22;66191;53.178;22.058;2023-06-14T07:58:23;19.10;90.30
28247;DHT22;66191;53.178;22.058;2023-06-14T08:00:56;19.10;90.80
28247;DHT22;66191;53.178;22.058;2023-06-14T08:03:29;19.10;91.40
28247;DHT22;66191;53.178;22.058;2023-06-14T08:06:01;19.10;91.80
28247;DHT22;66191;53.178;22.058;2023-06-14T08:08:32;19.00;91.00
28247;DHT22;66191;53.178;22.058;2023-06-14T08:11:03;19.10;90.70
28247;DHT22;66191;53.178;22.058;2023-06-14T08:13:35;19.00;89.90
28247;DHT22;66191;53.178;22.058;2023-06-14T08:16:09;18.90;90.60
28247;DHT22;66191;53.178;22.058;2023-06-14T08:18:40;18.90;90.80
28247;DHT22;66191;53.178;22.058;2023-06-14T08:21:11;18.80;90.60
28247;DHT22;66191;53.178;22.058;2023-06-14T08:23:44;18.70;90.80
28247;DHT22;66191;53.178;22.058;2023-06-14T08:26:15;18.60;91.20
28247;DHT22;66191;53.178;22.058;2023-06-14T08:28:46;18.60;91.30
28247;DHT22;66191;53.178;22.058;2023-06-14T08:31:20;18.50;91.60
28247;DHT22;66191;53.178;22.058;2023-06-14T08:33:52;18.50;91.90
28247;DHT22;66191;53.178;22.058;2023-06-14T08:36:23;18.30;92.20
28247;DHT22;66191;53.178;22.058;2023-06-14T08:38:54;18.20;92.10
28247;DHT22;66191;53.178;22.058;2023-06-14T08:41:25;17.90;92.10
28247;DHT22;66191;53.178;22.058;2023-06-14T08:43:59;17.80;92.30
28247;DHT22;66191;53.178;22.058;2023-06-14T08:46:33;17.70;92.90
28247;DHT22;66191;53.178;22.058;2023-06-14T08:49:05;17.60;92.70
28247;DHT22;66191;53.178;22.058;2023-06-14T08:51:37;17.50;92.70
28247;DHT22;66191;53.178;22.058;2023-06-14T08:54:11;17.40;92.60
28247;DHT22;66191;53.178;22.058;2023-06-14T08:56:43;17.30;92.30
28247;DHT22;66191;53.178;22.058;2023-06-14T08:59:17;17.30;92.80
28247;DHT22;66191;53.178;22.058;2023-06-14T09:01:52;17.40;93.00
28247;DHT22;66191;53.178;22.058;2023-06-14T09:04:39;17.40;93.20
28247;DHT22;66191;53.178;22.058;2023-06-14T09:07:13;17.40;93.20
28247;DHT22;66191;53.178;22.058;2023-06-14T09:09:45;17.50;93.30
28247;DHT22;66191;53.178;22.058;2023-06-14T09:12:32;17.50;93.20
28247;DHT22;66191;53.178;22.058;2023-06-14T09:15:06;17.50;93.30
28247;DHT22;66191;53.178;22.058;2023-06-14T09:17:40;17.50;93.30
28247;DHT22;66191;53.178;22.058;2023-06-14T09:20:40;17.30;93.60
28247;DHT22;66191;53.178;22.058;2023-06-14T09:23:11;17.10;93.90
28247;DHT22;66191;53.178;22.058;2023-06-14T09:25:43;17.10;94.40
28247;DHT22;66191;53.178;22.058;2023-06-14T09:28:14;17.00;94.70
28247;DHT22;66191;53.178;22.058;2023-06-14T09:30:50;16.90;95.20
28247;DHT22;66191;53.178;22.058;2023-06-14T09:33:25;17.00;95.60
28247;DHT22;66191;53.178;22.058;2023-06-14T09:35:56;16.90;94.90
28247;DHT22;66191;53.178;22.058;2023-06-14T09:38:28;16.80;94.70
28247;DHT22;66191;53.178;22.058;2023-06-14T09:40:59;16.80;94.60
28247;DHT22;66191;53.178;22.058;2023-06-14T09:43:34;16.70;94.30
28247;DHT22;66191;53.178;22.058;2023-06-14T09:46:06;16.70;94.50
28247;DHT22;66191;53.178;22.058;2023-06-14T09:48:41;16.60;94.30
28247;DHT22;66191;53.178;22.058;2023-06-14T09:51:14;16.50;94.50
28247;DHT22;66191;53.178;22.058;2023-06-14T09:53:47;16.40;94.70
28247;DHT22;66191;53.178;22.058;2023-06-14T09:56:23;16.30;94.90
28247;DHT22;66191;53.178;22.058;2023-06-14T09:59:05;16.30;95.30
28247;DHT22;66191;53.178;22.058;2023-06-14T10:01:41;16.40;95.70
28247;DHT22;66191;53.178;22.058;2023-06-14T10:04:15;16.30;95.30
28247;DHT22;66191;53.178;22.058;2023-06-14T10:06:52;16.20;95.70
28247;DHT22;66191;53.178;22.058;2023-06-14T10:09:26;16.20;95.40
28247;DHT22;66191;53.178;22.058;2023-06-14T10:12:00;16.10;95.20
28247;DHT22;66191;53.178;22.058;2023-06-14T10:14:32;16.10;95.10
28247;DHT22;66191;53.178;22.058;2023-06-14T10:17:08;16.10;95.10
28247;DHT22;66191;53.178;22.058;2023-06-14T10:19:50;16.10;95.20
28247;DHT22;66191;53.178;22.058;2023-06-14T10:22:29;16.10;95.80
28247;DHT22;66191;53.178;22.058;2023-06-14T10:25:02;16.10;95.90
28247;DHT22;66191;53.178;22.058;2023-06-14T10:27:44;16.10;95.60
28247;DHT22;66191;53.178;22.058;2023-06-14T10:30:16;16.00;95.40
28247;DHT22;66191;53.178;22.058;2023-06-14T10:33:04;16.00;96.10
28247;DHT22;66191;53.178;22.058;2023-06-14T10:35:38;16.10;97.10
28247;DHT22;66191;53.178;22.058;2023-06-14T10:38:12;16.10;97.10
28247;DHT22;66191;53.178;22.058;2023-06-14T10:40:52;16.10;97.40
28247;DHT22;66191;53.178;22.058;2023-06-14T10:43:24;16.30;97.90
28247;DHT22;66191;53.178;22.058;2023-06-14T10:48:42;16.50;98.30
28247;DHT22;66191;53.178;22.058;2023-06-14T10:51:19;16.60;97.20
28247;DHT22;66191;53.178;22.058;2023-06-14T10:53:51;16.80;97.40
28247;DHT22;66191;53.178;22.058;2023-06-14T10:56:28;16.90;97.00
28247;DHT22;66191;53.178;22.058;2023-06-14T10:59:00;17.10;96.90
28247;DHT22;66191;53.178;22.058;2023-06-14T11:01:36;17.30;97.00
28247;DHT22;66191;53.178;22.058;2023-06-14T11:04:09;17.40;96.80
28247;DHT22;66191;53.178;22.058;2023-06-14T11:06:50;17.50;96.50
28247;DHT22;66191;53.178;22.058;2023-06-14T11:09:47;17.60;96.30
28247;DHT22;66191;53.178;22.058;2023-06-14T11:12:24;17.70;95.90
28247;DHT22;66191;53.178;22.058;2023-06-14T11:14:56;17.80;95.30
28247;DHT22;66191;53.178;22.058;2023-06-14T11:17:28;17.90;95.30
28247;DHT22;66191;53.178;22.058;2023-06-14T11:20:09;18.10;94.60
28247;DHT22;66191;53.178;22.058;2023-06-14T11:22:52;18.20;94.10
28247;DHT22;66191;53.178;22.058;2023-06-14T11:25:24;18.20;93.60
28247;DHT22;66191;53.178;22.058;2023-06-14T11:27:57;18.20;93.10
28247;DHT22;66191;53.178;22.058;2023-06-14T11:30:28;18.20;92.80
28247;DHT22;66191;53.178;22.058;2023-06-14T11:32:59;18.30;93.50
28247;DHT22;66191;53.178;22.058;2023-06-14T11:35:31;18.30;92.70
28247;DHT22;66191;53.178;22.058;2023-06-14T11:38:05;18.20;91.80
28247;DHT22;66191;53.178;22.058;2023-06-14T11:40:38;18.20;92.40
28247;DHT22;66191;53.178;22.058;2023-06-14T11:43:09;18.20;92.50
28247;DHT22;66191;53.178;22.058;2023-06-14T11:45:41;18.20;92.70
28247;DHT22;66191;53.178;22.058;2023-06-14T11:48:36;18.10;92.70
28247;DHT22;66191;53.178;22.058;2023-06-14T11:51:07;18.10;92.60
28247;DHT22;66191;53.178;22.058;2023-06-14T11:53:42;17.90;92.80
28247;DHT22;66191;53.178;22.058;2023-06-14T11:56:14;18.00;93.00
28247;DHT22;66191;53.178;22.058;2023-06-14T11:58:46;18.00;92.80
28247;DHT22;66191;53.178;22.058;2023-06-14T12:01:18;17.90;92.60
28247;DHT22;66191;53.178;22.058;2023-06-14T12:03:49;17.90;92.80
28247;DHT22;66191;53.178;22.058;2023-06-14T12:06:30;17.90;93.10
28247;DHT22;66191;53.178;22.058;2023-06-14T12:09:07;18.00;93.30
28247;DHT22;66191;53.178;22.058;2023-06-14T12:11:41;18.10;93.10
28247;DHT22;66191;53.178;22.058;2023-06-14T12:14:12;18.20;92.50
28247;DHT22;66191;53.178;22.058;2023-06-14T12:16:44;18.20;92.60
28247;DHT22;66191;53.178;22.058;2023-06-14T12:19:16;18.30;92.40
28247;DHT22;66191;53.178;22.058;2023-06-14T12:21:48;18.40;92.40
28247;DHT22;66191;53.178;22.058;2023-06-14T12:24:28;18.40;91.90
28247;DHT22;66191;53.178;22.058;2023-06-14T12:27:00;18.40;91.80
28247;DHT22;66191;53.178;22.058;2023-06-14T12:29:31;18.40;92.10
28247;DHT22;66191;53.178;22.058;2023-06-14T12:32:03;18.50;91.90
28247;DHT22;66191;53.178;22.058;2023-06-14T12:34:34;18.50;91.60
28247;DHT22;66191;53.178;22.058;2023-06-14T12:37:06;18.60;91.90
28247;DHT22;66191;53.178;22.058;2023-06-14T12:39:40;18.60;91.60
28247;DHT22;66191;53.178;22.058;2023-06-14T12:42:12;18.60;91.10
28247;DHT22;66191;53.178;22.058;2023-06-14T12:44:43;18.70;90.90
28247;DHT22;66191;53.178;22.058;2023-06-14T12:47:14;18.80;91.20
28247;DHT22;66191;53.178;22.058;2023-06-14T12:49:46;18.80;90.40
28247;DHT22;66191;53.178;22.058;2023-06-14T12:52:18;18.90;90.50
28247;DHT22;66191;53.178;22.058;2023-06-14T12:54:52;19.00;90.40
28247;DHT22;66191;53.178;22.058;2023-06-14T12:57:23;19.10;90.10
28247;DHT22;66191;53.178;22.058;2023-06-14T12:59:55;19.10;90.00
28247;DHT22;66191;53.178;22.058;2023-06-14T13:02:26;19.30;90.20
28247;DHT22;66191;53.178;22.058;2023-06-14T13:04:57;19.30;89.70
28247;DHT22;66191;53.178;22.058;2023-06-14T13:07:31;19.40;90.10
28247;DHT22;66191;53.178;22.058;2023-06-14T13:10:06;19.20;89.50
28247;DHT22;66191;53.178;22.058;2023-06-14T13:12:37;19.20;88.40
28247;DHT22;66191;53.178;22.058;2023-06-14T13:15:10;19.10;88.70
28247;DHT22;66191;53.178;22.058;2023-06-14T13:17:42;19.10;88.60
28247;DHT22;66191;53.178;22.058;2023-06-14T13:20:16;19.10;89.20
28247;DHT22;66191;53.178;22.058;2023-06-14T13:22:48;19.10;89.50
28247;DHT22;66191;53.178;22.058;2023-06-14T13:25:22;19.20;89.50
28247;DHT22;66191;53.178;22.058;2023-06-14T13:27:53;19.20;90.30
28247;DHT22;66191;53.178;22.058;2023-06-14T13:30:24;19.20;90.40
28247;DHT22;66191;53.178;22.058;2023-06-14T13:32:56;19.40;90.30
28247;DHT22;66191;53.178;22.058;2023-06-14T13:35:27;19.40;88.70
28247;DHT22;66191;53.178;22.058;2023-06-14T13:37:59;19.40;89.50
28247;DHT22;66191;53.178;22.058;2023-06-14T13:40:32;19.40;89.20
28247;DHT22;66191;53.178;22.058;2023-06-14T13:43:04;19.30;88.40
28247;DHT22;66191;53.178;22.058;2023-06-14T13:45:35;19.20;89.30
28247;DHT22;66191;53.178;22.058;2023-06-14T13:48:06;19.30;89.90
28247;DHT22;66191;53.178;22.058;2023-06-14T13:50:38;19.20;90.00
28247;DHT22;66191;53.178;22.058;2023-06-14T13:53:09;19.30;90.30
28247;DHT22;66191;53.178;22.058;2023-06-14T13:55:43;19.30;90.00
28247;DHT22;66191;53.178;22.058;2023-06-14T13:58:14;19.20;88.70
28247;DHT22;66191;53.178;22.058;2023-06-14T14:00:45;19.10;88.80
28247;DHT22;66191;53.178;22.058;2023-06-14T14:03:17;19.10;88.40
28247;DHT22;66191;53.178;22.058;2023-06-14T14:05:48;19.10;87.90
28247;DHT22;66191;53.178;22.058;2023-06-14T14:08:19;19.00;88.10
28247;DHT22;66191;53.178;22.058;2023-06-14T14:10:53;19.10;87.50
28247;DHT22;66191;53.178;22.058;2023-06-14T14:13:24;19.10;87.90
28247;DHT22;66191;53.178;22.058;2023-06-14T14:15:55;19.10;88.90
28247;DHT22;66191;53.178;22.058;2023-06-14T14:18:27;19.10;88.60
28247;DHT22;66191;53.178;22.058;2023-06-14T14:20:59;19.10;88.30
28247;DHT22;66191;53.178;22.058;2023-06-14T14:23:30;19.10;88.10
28247;DHT22;66191;53.178;22.058;2023-06-14T14:26:04;19.10;88.30
28247;DHT22;66191;53.178;22.058;2023-06-14T14:28:35;19.00;88.40
28247;DHT22;66191;53.178;22.058;2023-06-14T14:31:06;19.00;88.30
28247;DHT22;66191;53.178;22.058;2023-06-14T14:33:38;19.00;88.90
28247;DHT22;66191;53.178;22.058;2023-06-14T14:36:09;18.90;89.20
28247;DHT22;66191;53.178;22.058;2023-06-14T14:38:41;18.90;89.50
28247;DHT22;66191;53.178;22.058;2023-06-14T14:41:15;18.90;89.40
28247;DHT22;66191;53.178;22.058;2023-06-14T14:43:46;18.90;89.50
28247;DHT22;66191;53.178;22.058;2023-06-14T14:46:17;18.90;89.90
28247;DHT22;66191;53.178;22.058;2023-06-14T14:48:49;18.90;89.80
28247;DHT22;66191;53.178;22.058;2023-06-14T14:51:20;18.90;89.10
28247;DHT22;66191;53.178;22.058;2023-06-14T14:53:51;18.90;89.00
28247;DHT22;66191;53.178;22.058;2023-06-14T14:56:25;18.80;89.30
28247;DHT22;66191;53.178;22.058;2023-06-14T14:58:56;18.80;89.20
28247;DHT22;66191;53.178;22.058;2023-06-14T15:01:27;18.80;89.80
28247;DHT22;66191;53.178;22.058;2023-06-14T15:03:59;18.80;89.80
28247;DHT22;66191;53.178;22.058;2023-06-14T15:06:30;18.70;90.00
28247;DHT22;66191;53.178;22.058;2023-06-14T15:09:07;18.70;90.30
28247;DHT22;66191;53.178;22.058;2023-06-14T15:11:40;18.70;90.30
28247;DHT22;66191;53.178;22.058;2023-06-14T15:14:15;18.70;90.40
28247;DHT22;66191;53.178;22.058;2023-06-14T15:16:49;18.60;90.50
28247;DHT22;66191;53.178;22.058;2023-06-14T15:19:21;18.60;90.50
28247;DHT22;66191;53.178;22.058;2023-06-14T15:21:53;18.60;90.40
28247;DHT22;66191;53.178;22.058;2023-06-14T15:24:27;18.60;90.50
28247;DHT22;66191;53.178;22.058;2023-06-14T15:27:13;18.60;90.60
28247;DHT22;66191;53.178;22.058;2023-06-14T15:29:46;18.60;90.60
28247;DHT22;66191;53.178;22.058;2023-06-14T15:32:18;18.70;90.70
28247;DHT22;66191;53.178;22.058;2023-06-14T15:34:50;18.70;90.80
28247;DHT22;66191;53.178;22.058;2023-06-14T15:37:21;18.70;90.70
28247;DHT22;66191;53.178;22.058;2023-06-14T15:39:52;18.70;90.80
28247;DHT22;66191;53.178;22.058;2023-06-14T15:42:25;18.80;90.90
28247;DHT22;66191;53.178;22.058;2023-06-14T15:44:57;18.70;90.50
28247;DHT22;66191;53.178;22.058;2023-06-14T15:47:28;18.70;90.40
28247;DHT22;66191;53.178;22.058;2023-06-14T15:49:59;18.70;90.50
28247;DHT22;66191;53.178;22.058;2023-06-14T15:52:32;18.70;90.50
28247;DHT22;66191;53.178;22.058;2023-06-14T15:55:05;18.70;90.70